Detall de PIREP

Printer-friendly versionPDF version

[2014/06/17 10:42:00]
Flight IATA:CT3112
Pilot Number:042
Company ICAO:CAT
Aircraft Type:F100/A
PAX:48
Aircraft Registration:PFJ
Departing Airport: LEBL
Destination Airport: LFMP
Alternate Airport:LEGE
Online: VATSIM
Route:BCN DCT PPG
Flight Level:F180
No Slew and time accel
No pause
Crash detect
Detect pilot in Cockpit between each 30 and 45 minutes
10:42 Zero fuel Weight: 81825 Lbs, Fuel Weight: 12142 Lbs
10:42 VATSIM:LEBL 171000Z 14005KT 100V180 9999 FEW030 24/14 Q1014 NOSIG
10:42 VATSIM:LFMP 171000Z 33016KT 300V360 9999 FEW040 26/08 Q1014 NOSIG
10:47 Parking Brakes off
10:53 Take-off
10:53 Take off Weight: 93423 Lbs
10:53 Wind: 109º @ 005 Knots Heading: 244º
10:53 POS N41º 17´ 06´´ E002º 04´ 58´´
10:53 Gear Up: 169 Knots
10:53 Flaps:2 at 169 Knots
10:53 Flaps:1 at 170 Knots
10:55 Flaps:0 at 206 Knots
10:59 TOC
10:59 Fuel Weight: 10466 Lb
11:08 Wind:202º@010 Knots Heading: 040º Ground Speed: 418 Knots Altitude 18018 ft
11:08 TOD
11:08 Fuel Weight: 9603 Lb
11:18 Flaps:1 at 202 Knots
11:20 Gear Down: 175 Knots
11:20 Flaps:2 at 175 Knots
11:20 Flaps:3 at 174 Knots
11:23 Wind:359º@021 Knots Heading: 331º Ground Speed: 146 Knots Altitude 278 ft
11:23 TouchDown:Rate -329 ft/min Speed: 122 Knots
11:23 VATSIM:LFMP 171100Z 36021KT 330V070 9999 FEW040 27/07 Q1013 NOSIG
11:23 Land
11:23 Wind:002º@021 Knots
11:23 Heading: 331º
11:23 Flight Duration: 00:30
11:23 Landing Weight: 90393 Lbs
11:23 POS N42º 44´ 50´´ E002º 52´ 02´´
11:26 Parking brakes on
11:26 Block to Block Duration: 00:39
11:26 Final Fuel: 8423 Lbls
11:26 Spent Fuel: 3719 Lbls
11:26 Flight Length: 154 NM
11:26 TOD Land Length: 67 NM

Exportar CSV

Powered by Drupal - Modified by Danger4k